createdAt,value
2018-11-06T00:01:38.517Z,6.21
2018-11-06T00:06:39.149Z,6.42
2018-11-06T00:11:39.701Z,6.66
2018-11-06T00:16:40.339Z,6.35
2018-11-06T00:21:40.994Z,6.12
2018-11-06T00:26:41.551Z,6.66
2018-11-06T00:31:42.183Z,6.10
2018-11-06T00:36:42.812Z,6.48
2018-11-06T00:41:43.478Z,6.65
2018-11-06T00:46:44.044Z,6.62
2018-11-06T00:51:44.654Z,6.67
2018-11-06T00:56:45.292Z,6.70
2018-11-06T01:01:45.950Z,6.79
2018-11-06T01:06:47.017Z,6.74
2018-11-06T01:11:47.649Z,7.15
2018-11-06T01:16:48.288Z,7.06
2018-11-06T01:21:48.934Z,6.72
2018-11-06T01:26:49.586Z,6.31
2018-11-06T01:31:50.221Z,6.22
2018-11-06T01:36:50.881Z,6.58
2018-11-06T01:41:51.513Z,6.72
2018-11-06T01:46:52.160Z,6.55
2018-11-06T01:51:52.817Z,6.78
2018-11-06T01:56:53.459Z,6.75
2018-11-06T02:01:54.021Z,6.32
2018-11-06T02:06:54.664Z,5.97
2018-11-06T02:11:55.281Z,5.87
2018-11-06T02:16:55.936Z,6.41
2018-11-06T02:21:56.586Z,6.45
2018-11-06T02:26:57.233Z,5.86
2018-11-06T02:31:57.882Z,5.92
2018-11-06T02:36:58.516Z,5.89
2018-11-06T02:41:59.164Z,5.99
2018-11-06T02:46:59.819Z,5.85
2018-11-06T02:52:00.448Z,5.76
2018-11-06T02:57:00.995Z,6.07
2018-11-06T03:02:01.550Z,6.35
2018-11-06T03:07:02.187Z,6.65
2018-11-06T03:12:02.825Z,6.34
2018-11-06T03:17:03.486Z,6.76
2018-11-06T03:22:04.027Z,6.52
2018-11-06T03:27:04.650Z,6.13
2018-11-06T03:32:05.217Z,6.22
2018-11-06T03:37:05.859Z,6.58
2018-11-06T03:42:06.393Z,6.37
2018-11-06T03:47:07.069Z,5.89
2018-11-06T03:52:07.617Z,5.89
2018-11-06T03:57:08.237Z,6.68
2018-11-06T04:02:08.805Z,6.32
2018-11-06T04:07:09.804Z,6.02
2018-11-06T04:12:10.379Z,5.97
2018-11-06T04:17:11.023Z,6.15
2018-11-06T04:22:11.660Z,5.85
2018-11-06T04:27:12.314Z,5.84
2018-11-06T04:32:12.853Z,6.04
2018-11-06T04:37:13.455Z,5.52
2018-11-06T04:42:14.157Z,5.18
2018-11-06T04:47:14.800Z,5.35
2018-11-06T04:52:15.424Z,5.30
2018-11-06T04:57:16.074Z,5.22
2018-11-06T05:02:16.847Z,5.75
2018-11-06T05:07:17.312Z,5.88
2018-11-06T05:12:17.876Z,5.45
2018-11-06T05:17:18.429Z,5.61
2018-11-06T05:22:19.000Z,5.49
2018-11-06T05:27:19.697Z,5.77
2018-11-06T05:32:20.289Z,5.92
2018-11-06T05:37:20.845Z,5.72
2018-11-06T05:42:21.392Z,5.94
2018-11-06T05:47:22.018Z,6.14
2018-11-06T05:52:22.685Z,5.92
2018-11-06T05:57:24.342Z,6.13
2018-11-06T06:02:24.892Z,5.85
2018-11-06T06:07:25.541Z,5.56
2018-11-06T06:12:26.161Z,5.84
2018-11-06T06:17:26.807Z,5.78
2018-11-06T06:22:27.467Z,6.09
2018-11-06T06:27:28.101Z,5.92
2018-11-06T06:32:28.773Z,5.74
2018-11-06T06:37:29.419Z,6.04
2018-11-06T06:42:30.037Z,5.96
2018-11-06T06:47:30.697Z,5.56
2018-11-06T06:52:31.327Z,5.90
2018-11-06T06:57:31.982Z,6.08
2018-11-06T07:02:33.129Z,6.24
2018-11-06T07:12:39.800Z,6.70
2018-11-06T07:17:40.762Z,7.08
2018-11-06T07:22:41.364Z,6.59
2018-11-06T07:27:41.900Z,6.12
2018-11-06T07:32:42.461Z,6.39
2018-11-06T07:37:43.075Z,5.99
2018-11-06T07:42:43.725Z,5.70
2018-11-06T07:47:44.369Z,5.68
2018-11-06T07:52:45.022Z,5.67
2018-11-06T07:57:45.680Z,5.90
2018-11-06T08:02:46.312Z,6.31
2018-11-06T08:07:46.864Z,6.79
2018-11-06T08:12:47.493Z,6.83
2018-11-06T08:17:48.046Z,6.42
2018-11-06T08:22:48.705Z,6.33
2018-11-06T08:27:49.359Z,6.98
2018-11-06T08:32:50.216Z,6.82
2018-11-06T08:37:50.541Z,7.26
2018-11-06T08:42:51.172Z,7.85
2018-11-06T08:47:51.834Z,7.18
2018-11-06T08:52:52.451Z,7.52
2018-11-06T08:57:53.100Z,8.31
2018-11-06T09:02:53.745Z,8.10
2018-11-06T09:07:54.398Z,8.45
2018-11-06T09:12:55.041Z,8.75
2018-11-06T09:17:55.688Z,8.26
2018-11-06T09:22:56.332Z,8.39
2018-11-06T09:27:56.879Z,8.37
2018-11-06T09:32:57.420Z,9.35
2018-11-06T09:37:58.092Z,8.85
2018-11-06T09:42:58.725Z,8.99
2018-11-06T09:47:59.359Z,9.27
2018-11-06T09:53:00.004Z,8.75
2018-11-06T09:58:00.658Z,8.99
2018-11-06T10:03:01.290Z,9.46
2018-11-06T10:08:01.972Z,9.18
2018-11-06T10:13:02.584Z,9.42
2018-11-06T10:18:03.236Z,9.17
2018-11-06T10:23:03.893Z,9.17
2018-11-06T10:28:04.517Z,9.74
2018-11-06T10:33:05.189Z,9.99
2018-11-06T10:38:05.847Z,10.44
2018-11-06T10:43:06.455Z,9.45
2018-11-06T10:48:07.001Z,9.71
2018-11-06T10:53:08.760Z,9.47
2018-11-06T10:58:09.471Z,9.73
2018-11-06T11:03:10.069Z,8.97
2018-11-06T11:08:10.709Z,8.98
2018-11-06T11:13:13.726Z,9.44
2018-11-06T11:18:15.015Z,10.11
2018-11-06T11:23:15.627Z,9.59
2018-11-06T11:28:16.251Z,10.48
2018-11-06T11:33:16.921Z,10.37
2018-11-06T11:38:17.485Z,10.57
2018-11-06T11:43:18.036Z,11.15
2018-11-06T11:48:18.638Z,11.55
2018-11-06T11:58:50.956Z,12.30
2018-11-06T12:03:51.507Z,13.12
2018-11-06T12:08:52.175Z,13.72
2018-11-06T12:13:52.788Z,12.58
2018-11-06T12:18:53.429Z,13.03
2018-11-06T12:23:54.110Z,13.09
2018-11-06T12:28:54.729Z,12.45
2018-11-06T12:33:55.380Z,12.80
2018-11-06T12:38:55.940Z,13.03
2018-11-06T12:43:56.501Z,12.74
2018-11-06T12:48:57.049Z,13.70
2018-11-06T12:53:57.643Z,12.87
2018-11-06T12:58:58.186Z,13.05
2018-11-06T13:03:58.828Z,12.89
2018-11-06T13:08:59.488Z,12.98
2018-11-06T13:14:01.151Z,14.02
2018-11-06T13:19:01.929Z,13.76
2018-11-06T13:24:02.490Z,14.19
2018-11-06T13:29:03.089Z,13.83
2018-11-06T13:34:03.734Z,13.67
2018-11-06T13:39:04.284Z,14.36
2018-11-06T13:44:05.100Z,14.12
2018-11-06T13:49:05.500Z,13.44
2018-11-06T13:54:06.108Z,13.68
2018-11-06T13:59:06.660Z,13.76
2018-11-06T14:04:07.258Z,12.95
2018-11-06T14:09:07.808Z,12.90
2018-11-06T14:14:08.384Z,13.58
2018-11-06T14:19:10.485Z,14.05
2018-11-06T14:24:11.112Z,13.23
2018-11-06T14:29:11.762Z,13.54
2018-11-06T14:34:12.405Z,14.14
2018-11-06T14:39:12.953Z,13.25
2018-11-06T14:44:13.582Z,12.58
2018-11-06T14:49:14.186Z,12.76
2018-11-06T14:54:15.544Z,12.76
2018-11-06T14:59:16.964Z,12.69
2018-11-06T15:04:17.635Z,12.93
2018-11-06T15:09:18.190Z,12.98
2018-11-06T15:14:18.803Z,12.95
2018-11-06T15:19:19.469Z,12.76
2018-11-06T15:24:20.080Z,12.65
2018-11-06T15:29:20.757Z,12.43
2018-11-06T15:34:21.333Z,11.97
2018-11-06T15:39:21.931Z,11.64
2018-11-06T15:44:22.580Z,11.43
2018-11-06T15:49:23.225Z,11.09
2018-11-06T15:54:23.902Z,10.79
2018-11-06T15:59:24.481Z,10.50
2018-11-06T16:04:25.114Z,10.45
2018-11-06T16:09:25.728Z,10.37
2018-11-06T16:14:26.363Z,10.18
2018-11-06T16:19:27.009Z,10.02
2018-11-06T16:24:27.573Z,10.13
2018-11-06T16:29:29.056Z,9.67
2018-11-06T16:34:29.868Z,9.34
2018-11-06T16:39:30.519Z,9.20
2018-11-06T16:44:31.163Z,9.09
2018-11-06T16:49:31.858Z,9.04
2018-11-06T16:54:32.486Z,8.79
2018-11-06T16:59:33.227Z,8.82
2018-11-06T17:04:34.036Z,9.26
2018-11-06T17:09:38.958Z,8.98
2018-11-06T17:19:46.852Z,9.04
2018-11-06T17:24:49.213Z,9.12
2018-11-06T17:40:03.041Z,8.75
2018-11-06T17:50:11.297Z,8.72
2018-11-06T18:00:20.495Z,8.88
2018-11-06T18:10:29.386Z,8.66
2018-11-06T18:20:38.300Z,7.78
2018-11-06T18:25:42.793Z,8.43
2018-11-06T18:43:29.614Z,7.98
2018-11-06T18:48:43.303Z,8.21
2018-11-06T18:53:45.990Z,8.20
2018-11-06T18:58:47.086Z,8.00
2018-11-06T19:08:54.287Z,7.84
2018-11-06T19:13:54.958Z,7.66
2018-11-06T19:24:01.908Z,7.30
2018-11-06T19:34:31.706Z,7.41
2018-11-06T19:39:32.356Z,7.48
2018-11-06T19:44:35.924Z,7.55
2018-11-06T19:59:54.208Z,7.46
2018-11-06T20:04:54.852Z,7.51
2018-11-06T20:24:48.250Z,7.75
2018-11-06T20:34:55.934Z,7.64
2018-11-06T20:39:56.665Z,7.61
2018-11-06T20:50:04.362Z,7.75
2018-11-06T20:55:05.614Z,8.06
2018-11-06T21:05:13.070Z,8.47
2018-11-06T21:10:13.839Z,7.95
2018-11-06T21:15:14.573Z,7.93
2018-11-06T21:20:16.298Z,7.87
2018-11-06T21:25:16.943Z,8.14
2018-11-06T21:40:30.847Z,7.60
2018-11-06T21:45:32.727Z,7.51
2018-11-06T21:50:33.416Z,7.58
2018-11-06T21:55:35.104Z,7.33
2018-11-06T22:00:35.821Z,7.11
2018-11-06T22:12:44.657Z,7.22
2018-11-06T22:17:45.227Z,7.86
2018-11-06T22:22:45.926Z,7.18
2018-11-06T22:27:46.576Z,6.97
2018-11-06T22:32:47.387Z,6.93
2018-11-06T22:37:49.337Z,7.16
2018-11-06T22:47:56.485Z,6.95
2018-11-06T22:53:02.086Z,7.15
2018-11-06T23:08:26.089Z,6.87
2018-11-06T23:13:27.755Z,6.66
2018-11-06T23:18:28.423Z,6.60
2018-11-06T23:23:30.884Z,6.54
2018-11-06T23:43:57.357Z,6.63
